PWSweather.com
Personal Weather Stations
Station Observations
TA10213
Italia Montegranaro, TarantoIT 74121

Italia MontegranaroTarantoIT 74121

Lat: 40.45343157504749, Lon: 17.258175015449538

Elevation: 136

Station Type: Davis Vantage Pro 2

meteotaranto2.altervista.org

High Low Average
Temperature 55.3°F12.9°C 49.8°F9.9°C 52.7°F11.5°C
Dew Point 47.6°F8.7°C 42.9°F6.1°C 45.5°F7.5°C
Winds 11.5 mph 18.5 kmh Calm Calm 5.0 mph E8.0 kmh E
Wind Gusts 18.4 mph29.6 kmh -- 8.0 mph12.9 kmh
Humidity 91% 66% 77%
Pressure 29.98 in1015.2 mb 29.82 in1009.8 mb -
Precipitation 0.32 in8.1 mm - -
Hour Temp Dew Point Humidity Winds Wind Gusts Pressure Precip Precip Rate Daily Precip Total
12:00 AM 50.0°F10.0°C 47.5°F8.6°C 91% Calm Calm -- 29.82 in1009.8 mb - 0.00 in0.0 mm 0.00 in0.0 mm
12:05 AM 50.0°F10.0°C 47.5°F8.6°C 91% 3.5 mph NNE5.6 kmh NNE 3.5 mph5.6 kmh 29.82 in1009.8 mb - 0.01 in0.3 mm 0.01 in0.3 mm
12:10 AM 50.1°F10.1°C 47.3°F8.5°C 90% 3.5 mph NE5.6 kmh NE 6.9 mph11.1 kmh 29.82 in1009.8 mb - 0.03 in0.8 mm 0.04 in1.0 mm
12:15 AM 50.1°F10.1°C 47.3°F8.5°C 90% 4.6 mph ESE7.4 kmh ESE 6.9 mph11.1 kmh 29.83 in1010.2 mb - 0.04 in1.0 mm 0.07 in1.8 mm
12:20 AM 50.1°F10.1°C 47.3°F8.5°C 90% 4.6 mph ESE7.4 kmh ESE 11.5 mph18.5 kmh 29.83 in1010.2 mb - 0.02 in0.5 mm 0.08 in2.0 mm
12:25 AM 50.1°F10.1°C 47.3°F8.5°C 90% 4.6 mph ESE7.4 kmh ESE 4.6 mph7.4 kmh 29.83 in1010.2 mb - 0.00 in0.0 mm 0.08 in2.0 mm
12:30 AM 50.1°F10.1°C 47.3°F8.5°C 90% 5.8 mph ESE9.3 kmh ESE 9.2 mph14.8 kmh 29.83 in1010.2 mb - 0.00 in0.0 mm 0.08 in2.0 mm
12:35 AM 50.1°F10.1°C 47.3°F8.5°C 90% 4.6 mph ESE7.4 kmh ESE 9.2 mph14.8 kmh 29.83 in1010.2 mb - 0.02 in0.5 mm 0.10 in2.5 mm
12:40 AM 50.1°F10.1°C 47.5°F8.6°C 91% 5.8 mph E9.3 kmh E 11.5 mph18.5 kmh 29.83 in1010.2 mb - 0.01 in0.3 mm 0.11 in2.8 mm
12:45 AM 50.1°F10.1°C 47.6°F8.7°C 91% 6.9 mph E11.1 kmh E 11.5 mph18.5 kmh 29.83 in1010.2 mb - 0.02 in0.5 mm 0.13 in3.3 mm
12:50 AM 50.1°F10.1°C 47.6°F8.7°C 91% 4.6 mph ESE7.4 kmh ESE 5.8 mph9.3 kmh 29.82 in1009.8 mb - 0.01 in0.3 mm 0.14 in3.6 mm
12:55 AM 50.0°F10.0°C 47.5°F8.6°C 91% 3.5 mph ENE5.6 kmh ENE 5.8 mph9.3 kmh 29.82 in1009.8 mb - 0.01 in0.3 mm 0.15 in3.8 mm
01:00 AM 49.9°F9.9°C 47.4°F8.6°C 91% 2.3 mph E3.7 kmh E 9.2 mph14.8 kmh 29.82 in1009.8 mb - 0.02 in0.5 mm 0.17 in4.3 mm
01:05 AM 49.8°F9.9°C 47.3°F8.5°C 91% 2.3 mph E3.7 kmh E 3.5 mph5.6 kmh 29.82 in1009.8 mb - 0.01 in0.3 mm 0.17 in4.3 mm
01:10 AM 49.8°F9.9°C 47.3°F8.5°C 91% 2.3 mph NE3.7 kmh NE 5.8 mph9.3 kmh 29.82 in1009.8 mb - 0.00 in0.0 mm 0.17 in4.3 mm
01:15 AM 49.8°F9.9°C 47.3°F8.5°C 91% 2.3 mph ESE3.7 kmh ESE 5.8 mph9.3 kmh 29.82 in1009.8 mb - 0.00 in0.0 mm 0.17 in4.3 mm
01:20 AM 49.8°F9.9°C 47.0°F8.3°C 90% 3.5 mph E5.6 kmh E 6.9 mph11.1 kmh 29.82 in1009.8 mb - 0.01 in0.3 mm 0.18 in4.6 mm
01:25 AM 49.9°F9.9°C 47.1°F8.4°C 90% 4.6 mph E7.4 kmh E 6.9 mph11.1 kmh 29.82 in1009.8 mb - 0.01 in0.3 mm 0.19 in4.8 mm
01:30 AM 49.9°F9.9°C 47.1°F8.4°C 90% 2.3 mph E3.7 kmh E 3.5 mph5.6 kmh 29.82 in1009.8 mb - 0.00 in0.0 mm 0.19 in4.8 mm
01:35 AM 49.9°F9.9°C 46.8°F8.2°C 89% 3.5 mph E5.6 kmh E 6.9 mph11.1 kmh 29.82 in1009.8 mb - 0.00 in0.0 mm 0.19 in4.8 mm
01:40 AM 49.9°F9.9°C 46.8°F8.2°C 89% 3.5 mph ENE5.6 kmh ENE 6.9 mph11.1 kmh 29.82 in1009.8 mb - 0.01 in0.3 mm 0.20 in5.1 mm
01:45 AM 50.0°F10.0°C 46.9°F8.3°C 89% 3.5 mph E5.6 kmh E 6.9 mph11.1 kmh 29.82 in1009.8 mb - 0.01 in0.3 mm 0.20 in5.1 mm
01:50 AM 50.1°F10.1°C 47.0°F8.3°C 89% 3.5 mph E5.6 kmh E 6.9 mph11.1 kmh 29.82 in1009.8 mb - 0.00 in0.0 mm 0.20 in5.1 mm
01:55 AM 50.1°F10.1°C 47.0°F8.3°C 89% 3.5 mph E5.6 kmh E 5.8 mph9.3 kmh 29.82 in1009.8 mb - 0.00 in0.0 mm 0.20 in5.1 mm
02:00 AM 50.1°F10.1°C 47.0°F8.3°C 89% 3.5 mph E5.6 kmh E 8.1 mph13.0 kmh 29.83 in1010.2 mb - 0.00 in0.0 mm 0.20 in5.1 mm
02:05 AM 50.1°F10.1°C 46.7°F8.2°C 88% 3.5 mph E5.6 kmh E 6.9 mph11.1 kmh 29.83 in1010.2 mb - 0.00 in0.0 mm 0.20 in5.1 mm
02:10 AM 50.0°F10.0°C 46.6°F8.1°C 88% 3.5 mph E5.6 kmh E 8.1 mph13.0 kmh 29.83 in1010.2 mb - 0.00 in0.0 mm 0.20 in5.1 mm
02:15 AM 50.0°F10.0°C 46.9°F8.3°C 89% 3.5 mph E5.6 kmh E 6.9 mph11.1 kmh 29.83 in1010.2 mb - 0.01 in0.3 mm 0.21 in5.3 mm
02:20 AM 49.9°F9.9°C 46.8°F8.2°C 89% 2.3 mph ESE3.7 kmh ESE 3.5 mph5.6 kmh 29.82 in1009.8 mb - 0.00 in0.0 mm 0.21 in5.3 mm
02:25 AM 49.8°F9.9°C 46.7°F8.2°C 89% 3.5 mph E5.6 kmh E 4.6 mph7.4 kmh 29.83 in1010.2 mb - 0.00 in0.0 mm 0.21 in5.3 mm
02:30 AM 49.8°F9.9°C 46.7°F8.2°C 89% 2.3 mph E3.7 kmh E 5.8 mph9.3 kmh 29.83 in1010.2 mb - 0.01 in0.3 mm 0.22 in5.6 mm
02:35 AM 49.8°F9.9°C 46.7°F8.2°C 89% 3.5 mph E5.6 kmh E 3.5 mph5.6 kmh 29.82 in1009.8 mb - 0.00 in0.0 mm 0.22 in5.6 mm
02:40 AM 49.8°F9.9°C 46.7°F8.2°C 89% 3.5 mph NE5.6 kmh NE 4.6 mph7.4 kmh 29.82 in1009.8 mb - 0.01 in0.3 mm 0.23 in5.8 mm
02:45 AM 49.8°F9.9°C 46.7°F8.2°C 89% 2.3 mph ENE3.7 kmh ENE 5.8 mph9.3 kmh 29.82 in1009.8 mb - 0.00 in0.0 mm 0.23 in5.8 mm
02:50 AM 49.8°F9.9°C 46.4°F8.0°C 88% 4.6 mph NE7.4 kmh NE 10.4 mph16.7 kmh 29.82 in1009.8 mb - 0.00 in0.0 mm 0.23 in5.8 mm
02:55 AM 49.9°F9.9°C 46.8°F8.2°C 89% 3.5 mph NNE5.6 kmh NNE 8.1 mph13.0 kmh 29.82 in1009.8 mb - 0.01 in0.3 mm 0.24 in6.1 mm
03:00 AM 49.9°F9.9°C 46.8°F8.2°C 89% 4.6 mph N7.4 kmh N 10.4 mph16.7 kmh 29.82 in1009.8 mb - 0.01 in0.3 mm 0.25 in6.4 mm
03:05 AM 49.9°F9.9°C 46.8°F8.2°C 89% 4.6 mph NE7.4 kmh NE 8.1 mph13.0 kmh 29.82 in1009.8 mb - 0.00 in0.0 mm 0.25 in6.4 mm
03:10 AM 49.9°F9.9°C 46.8°F8.2°C 89% 2.3 mph NNE3.7 kmh NNE 3.5 mph5.6 kmh 29.82 in1009.8 mb - 0.00 in0.0 mm 0.25 in6.4 mm
03:15 AM 49.9°F9.9°C 46.5°F8.1°C 88% 2.3 mph NNE3.7 kmh NNE 5.8 mph9.3 kmh 29.82 in1009.8 mb - 0.01 in0.3 mm 0.26 in6.6 mm
03:20 AM 49.9°F9.9°C 46.5°F8.1°C 88% 3.5 mph NE5.6 kmh NE 9.2 mph14.8 kmh 29.82 in1009.8 mb - 0.01 in0.3 mm 0.27 in6.9 mm
07:50 AM 52.4°F11.3°C 47.4°F8.6°C 83% 4.6 mph NNW7.4 kmh NNW 3.5 mph5.6 kmh 29.84 in1010.5 mb - 0.00 in0.0 mm 0.31 in7.9 mm
07:55 AM 52.4°F11.3°C 47.4°F8.6°C 83% 2.3 mph NE3.7 kmh NE 9.2 mph14.8 kmh 29.84 in1010.5 mb - 0.00 in0.0 mm 0.31 in7.9 mm
08:00 AM 52.5°F11.4°C 47.5°F8.6°C 83% 2.3 mph E3.7 kmh E 8.1 mph13.0 kmh 29.84 in1010.5 mb - 0.00 in0.0 mm 0.31 in7.9 mm
08:05 AM 52.5°F11.4°C 47.2°F8.4°C 82% 4.6 mph SE7.4 kmh SE 5.8 mph9.3 kmh 29.84 in1010.5 mb - 0.00 in0.0 mm 0.31 in7.9 mm
08:10 AM 52.6°F11.4°C 47.3°F8.5°C 82% 4.6 mph NW7.4 kmh NW 5.8 mph9.3 kmh 29.84 in1010.5 mb - 0.00 in0.0 mm 0.31 in7.9 mm
08:15 AM 52.7°F11.5°C 47.0°F8.3°C 81% 3.5 mph ENE5.6 kmh ENE 3.5 mph5.6 kmh 29.85 in1010.8 mb - 0.00 in0.0 mm 0.31 in7.9 mm
08:20 AM 52.8°F11.6°C 47.1°F8.4°C 81% 1.2 mph E1.9 kmh E -- 29.85 in1010.8 mb - 0.00 in0.0 mm 0.31 in7.9 mm
08:25 AM 52.8°F11.6°C 46.8°F8.2°C 80% 3.5 mph ENE5.6 kmh ENE 4.6 mph7.4 kmh 29.85 in1010.8 mb - 0.00 in0.0 mm 0.31 in7.9 mm
08:30 AM 53.0°F11.7°C 46.7°F8.2°C 79% 4.6 mph NNE7.4 kmh NNE 8.1 mph13.0 kmh 29.85 in1010.8 mb - 0.00 in0.0 mm 0.31 in7.9 mm
08:35 AM 53.0°F11.7°C 46.7°F8.2°C 79% 3.5 mph E5.6 kmh E 8.1 mph13.0 kmh 29.85 in1010.8 mb - 0.00 in0.0 mm 0.31 in7.9 mm
08:40 AM 53.0°F11.7°C 46.7°F8.2°C 79% 1.2 mph N1.9 kmh N 3.5 mph5.6 kmh 29.85 in1010.8 mb - 0.00 in0.0 mm 0.31 in7.9 mm
08:45 AM 53.0°F11.7°C 46.7°F8.2°C 79% 1.2 mph NNE1.9 kmh NNE 3.5 mph5.6 kmh 29.86 in1011.2 mb - 0.00 in0.0 mm 0.31 in7.9 mm
08:50 AM 53.0°F11.7°C 46.7°F8.2°C 79% 3.5 mph ENE5.6 kmh ENE 8.1 mph13.0 kmh 29.86 in1011.2 mb - 0.00 in0.0 mm 0.31 in7.9 mm
08:55 AM 53.0°F11.7°C 46.7°F8.2°C 79% 4.6 mph SE7.4 kmh SE 10.4 mph16.7 kmh 29.86 in1011.2 mb - 0.00 in0.0 mm 0.31 in7.9 mm
09:00 AM 53.1°F11.7°C 46.4°F8.0°C 78% 3.5 mph N5.6 kmh N 9.2 mph14.8 kmh 29.86 in1011.2 mb - 0.00 in0.0 mm 0.31 in7.9 mm
09:05 AM 53.1°F11.7°C 46.4°F8.0°C 78% 2.3 mph E3.7 kmh E 4.6 mph7.4 kmh 29.87 in1011.5 mb - 0.00 in0.0 mm 0.31 in7.9 mm
09:10 AM 53.1°F11.7°C 46.4°F8.0°C 78% 3.5 mph E5.6 kmh E 10.4 mph16.7 kmh 29.87 in1011.5 mb - 0.00 in0.0 mm 0.31 in7.9 mm
09:15 AM 53.2°F11.8°C 46.5°F8.1°C 78% 5.8 mph NNE9.3 kmh NNE 10.4 mph16.7 kmh 29.87 in1011.5 mb - 0.00 in0.0 mm 0.31 in7.9 mm
09:20 AM 53.3°F11.8°C 46.6°F8.1°C 78% 5.8 mph NE9.3 kmh NE 5.8 mph9.3 kmh 29.87 in1011.5 mb - 0.00 in0.0 mm 0.31 in7.9 mm
09:25 AM 53.3°F11.8°C 46.6°F8.1°C 78% 4.6 mph N7.4 kmh N 4.6 mph7.4 kmh 29.88 in1011.9 mb - 0.00 in0.0 mm 0.31 in7.9 mm
09:30 AM 53.4°F11.9°C 46.7°F8.2°C 78% 4.6 mph NNE7.4 kmh NNE 4.6 mph7.4 kmh 29.88 in1011.9 mb - 0.00 in0.0 mm 0.31 in7.9 mm
09:35 AM 53.4°F11.9°C 46.7°F8.2°C 78% 3.5 mph NNE5.6 kmh NNE 6.9 mph11.1 kmh 29.88 in1011.9 mb - 0.00 in0.0 mm 0.31 in7.9 mm
09:40 AM 53.3°F11.8°C 46.6°F8.1°C 78% 2.3 mph N3.7 kmh N 3.5 mph5.6 kmh 29.88 in1011.9 mb - 0.00 in0.0 mm 0.31 in7.9 mm
09:45 AM 53.3°F11.8°C 46.6°F8.1°C 78% 3.5 mph NNE5.6 kmh NNE 5.8 mph9.3 kmh 29.88 in1011.9 mb - 0.00 in0.0 mm 0.31 in7.9 mm
09:50 AM 53.4°F11.9°C 46.4°F8.0°C 77% 3.5 mph NNE5.6 kmh NNE 9.2 mph14.8 kmh 29.88 in1011.9 mb - 0.00 in0.0 mm 0.31 in7.9 mm
09:55 AM 53.5°F11.9°C 46.5°F8.1°C 77% 3.5 mph NNE5.6 kmh NNE 5.8 mph9.3 kmh 29.88 in1011.9 mb - 0.00 in0.0 mm 0.31 in7.9 mm
10:00 AM 53.6°F12.0°C 46.6°F8.1°C 77% 4.6 mph NE7.4 kmh NE 8.1 mph13.0 kmh 29.88 in1011.9 mb - 0.00 in0.0 mm 0.31 in7.9 mm
10:05 AM 53.7°F12.1°C 46.3°F7.9°C 76% 6.9 mph NNE11.1 kmh NNE 9.2 mph14.8 kmh 29.88 in1011.9 mb - 0.00 in0.0 mm 0.31 in7.9 mm
10:10 AM 53.7°F12.1°C 46.3°F7.9°C 76% 4.6 mph N7.4 kmh N 9.2 mph14.8 kmh 29.89 in1012.2 mb - 0.00 in0.0 mm 0.31 in7.9 mm
10:15 AM 53.7°F12.1°C 46.3°F7.9°C 76% 3.5 mph N5.6 kmh N 8.1 mph13.0 kmh 29.89 in1012.2 mb - 0.00 in0.0 mm 0.31 in7.9 mm
10:20 AM 53.7°F12.1°C 46.3°F7.9°C 76% 5.8 mph N9.3 kmh N 6.9 mph11.1 kmh 29.89 in1012.2 mb - 0.00 in0.0 mm 0.31 in7.9 mm
10:25 AM 53.7°F12.1°C 46.3°F7.9°C 76% 4.6 mph N7.4 kmh N 8.1 mph13.0 kmh 29.89 in1012.2 mb - 0.00 in0.0 mm 0.31 in7.9 mm
10:30 AM 53.7°F12.1°C 46.3°F7.9°C 76% 3.5 mph N5.6 kmh N 4.6 mph7.4 kmh 29.89 in1012.2 mb - 0.00 in0.0 mm 0.31 in7.9 mm
10:35 AM 53.7°F12.1°C 46.7°F8.2°C 77% 1.2 mph NNW1.9 kmh NNW 2.3 mph3.7 kmh 29.89 in1012.2 mb - 0.00 in0.0 mm 0.31 in7.9 mm
10:40 AM 53.6°F12.0°C 46.6°F8.1°C 77% 2.3 mph N3.7 kmh N 3.5 mph5.6 kmh 29.89 in1012.2 mb - 0.00 in0.0 mm 0.31 in7.9 mm
10:45 AM 53.6°F12.0°C 46.9°F8.3°C 78% 3.5 mph NNE5.6 kmh NNE 10.4 mph16.7 kmh 29.89 in1012.2 mb - 0.00 in0.0 mm 0.31 in7.9 mm
10:50 AM 53.5°F11.9°C 46.9°F8.3°C 78% 4.6 mph NE7.4 kmh NE 6.9 mph11.1 kmh 29.89 in1012.2 mb - 0.00 in0.0 mm 0.31 in7.9 mm
10:55 AM 53.7°F12.1°C 47.0°F8.3°C 78% 5.8 mph N9.3 kmh N 10.4 mph16.7 kmh 29.89 in1012.2 mb - 0.01 in0.3 mm 0.32 in8.1 mm
11:00 AM 53.9°F12.2°C 46.9°F8.3°C 77% 4.6 mph NNE7.4 kmh NNE 8.1 mph13.0 kmh 29.89 in1012.2 mb - 0.01 in0.3 mm 0.32 in8.1 mm
11:05 AM 54.0°F12.2°C 47.0°F8.3°C 77% 5.8 mph 9.3 kmh 9.2 mph14.8 kmh 29.89 in1012.2 mb - 0.00 in0.0 mm 0.32 in8.1 mm
11:10 AM 54.0°F12.2°C 47.3°F8.5°C 78% 3.5 mph N5.6 kmh N 8.1 mph13.0 kmh 29.89 in1012.2 mb - 0.00 in0.0 mm 0.32 in8.1 mm
11:15 AM 53.9°F12.2°C 47.1°F8.4°C 78% 4.6 mph N7.4 kmh N 10.4 mph16.7 kmh 29.89 in1012.2 mb - 0.00 in0.0 mm 0.32 in8.1 mm
11:20 AM 53.9°F12.2°C 47.2°F8.4°C 78% 6.9 mph N11.1 kmh N 10.4 mph16.7 kmh 29.88 in1011.9 mb - 0.00 in0.0 mm 0.32 in8.1 mm
11:25 AM 53.7°F12.1°C 46.7°F8.2°C 77% 9.2 mph N14.8 kmh N 11.5 mph18.5 kmh 29.88 in1011.9 mb - 0.00 in0.0 mm 0.32 in8.1 mm
11:30 AM 53.8°F12.1°C 46.7°F8.2°C 77% 9.2 mph NNE14.8 kmh NNE 11.5 mph18.5 kmh 29.88 in1011.9 mb - 0.00 in0.0 mm 0.32 in8.1 mm
11:35 AM 53.8°F12.1°C 46.8°F8.2°C 77% 8.1 mph N13.0 kmh N 10.4 mph16.7 kmh 29.88 in1011.9 mb - 0.00 in0.0 mm 0.32 in8.1 mm
11:40 AM 53.8°F12.1°C 46.8°F8.2°C 77% 10.4 mph N16.7 kmh N 12.7 mph20.4 kmh 29.88 in1011.9 mb - 0.00 in0.0 mm 0.32 in8.1 mm
11:45 AM 53.9°F12.2°C 46.9°F8.3°C 77% 8.1 mph N13.0 kmh N 12.7 mph20.4 kmh 29.88 in1011.9 mb - 0.00 in0.0 mm 0.32 in8.1 mm
11:50 AM 54.0°F12.2°C 46.9°F8.3°C 77% 6.9 mph N11.1 kmh N 9.2 mph14.8 kmh 29.88 in1011.9 mb - 0.00 in0.0 mm 0.32 in8.1 mm
11:55 AM 54.1°F12.3°C 46.7°F8.2°C 76% 9.2 mph NNE14.8 kmh NNE 13.8 mph22.2 kmh 29.88 in1011.9 mb - 0.00 in0.0 mm 0.32 in8.1 mm
12:00 PM 54.1°F12.3°C 47.0°F8.3°C 77% 4.6 mph NNE7.4 kmh NNE 12.7 mph20.4 kmh 29.88 in1011.9 mb - 0.00 in0.0 mm 0.32 in8.1 mm
12:05 PM 54.0°F12.2°C 47.0°F8.3°C 77% 3.5 mph NNW5.6 kmh NNW 4.6 mph7.4 kmh 29.88 in1011.9 mb - 0.00 in0.0 mm 0.32 in8.1 mm
12:10 PM 54.1°F12.3°C 47.0°F8.3°C 77% 9.2 mph N14.8 kmh N 12.7 mph20.4 kmh 29.88 in1011.9 mb - 0.00 in0.0 mm 0.32 in8.1 mm
12:15 PM 54.1°F12.3°C 47.0°F8.3°C 77% 6.9 mph NNE11.1 kmh NNE 9.2 mph14.8 kmh 29.88 in1011.9 mb - 0.00 in0.0 mm 0.32 in8.1 mm
12:20 PM 54.2°F12.3°C 47.1°F8.4°C 77% 4.6 mph N7.4 kmh N 5.8 mph9.3 kmh 29.88 in1011.9 mb - 0.00 in0.0 mm 0.32 in8.1 mm
12:25 PM 54.4°F12.4°C 47.4°F8.6°C 77% 2.3 mph ENE3.7 kmh ENE 3.5 mph5.6 kmh 29.87 in1011.5 mb - 0.00 in0.0 mm 0.32 in8.1 mm
12:30 PM 54.7°F12.6°C 47.6°F8.7°C 77% 5.8 mph NE9.3 kmh NE 9.2 mph14.8 kmh 29.87 in1011.5 mb - 0.00 in0.0 mm 0.32 in8.1 mm
12:35 PM 54.9°F12.7°C 47.5°F8.6°C 76% 4.6 mph N7.4 kmh N 10.4 mph16.7 kmh 29.87 in1011.5 mb - 0.00 in0.0 mm 0.32 in8.1 mm
12:40 PM 55.2°F12.9°C 47.4°F8.6°C 75% 2.3 mph NE3.7 kmh NE 5.8 mph9.3 kmh 29.87 in1011.5 mb - 0.00 in0.0 mm 0.32 in8.1 mm
12:45 PM 55.3°F12.9°C 46.8°F8.2°C 73% 6.9 mph NE11.1 kmh NE 6.9 mph11.1 kmh 29.87 in1011.5 mb - 0.00 in0.0 mm 0.32 in8.1 mm
12:50 PM 55.3°F12.9°C 46.4°F8.0°C 72% 5.8 mph N9.3 kmh N 11.5 mph18.5 kmh 29.87 in1011.5 mb - 0.00 in0.0 mm 0.32 in8.1 mm
12:55 PM 55.3°F12.9°C 46.8°F8.2°C 73% 2.3 mph NE3.7 kmh NE 5.8 mph9.3 kmh 29.87 in1011.5 mb - 0.00 in0.0 mm 0.32 in8.1 mm
01:00 PM 55.3°F12.9°C 46.4°F8.0°C 72% 9.2 mph NNE14.8 kmh NNE 16.1 mph25.9 kmh 29.87 in1011.5 mb - 0.00 in0.0 mm 0.32 in8.1 mm
01:05 PM 55.1°F12.8°C 45.5°F7.5°C 70% 6.9 mph NNE11.1 kmh NNE 18.4 mph29.6 kmh 29.87 in1011.5 mb - 0.00 in0.0 mm 0.32 in8.1 mm
01:10 PM 55.0°F12.8°C 45.0°F7.2°C 69% 3.5 mph N5.6 kmh N 8.1 mph13.0 kmh 29.87 in1011.5 mb - 0.00 in0.0 mm 0.32 in8.1 mm
01:15 PM 55.0°F12.8°C 45.4°F7.4°C 70% 4.6 mph NE7.4 kmh NE 8.1 mph13.0 kmh 29.87 in1011.5 mb - 0.00 in0.0 mm 0.32 in8.1 mm
01:20 PM 54.9°F12.7°C 45.3°F7.4°C 70% 10.4 mph NE16.7 kmh NE 16.1 mph25.9 kmh 29.87 in1011.5 mb - 0.00 in0.0 mm 0.32 in8.1 mm
01:25 PM 54.8°F12.7°C 45.2°F7.3°C 70% 6.9 mph ENE11.1 kmh ENE 13.8 mph22.2 kmh 29.87 in1011.5 mb - 0.00 in0.0 mm 0.32 in8.1 mm
01:30 PM 54.8°F12.7°C 45.6°F7.6°C 71% 5.8 mph NNE9.3 kmh NNE 13.8 mph22.2 kmh 29.88 in1011.9 mb - 0.00 in0.0 mm 0.32 in8.1 mm
01:35 PM 54.6°F12.6°C 44.6°F7.0°C 69% 4.6 mph E7.4 kmh E 10.4 mph16.7 kmh 29.88 in1011.9 mb - 0.00 in0.0 mm 0.32 in8.1 mm
01:40 PM 54.6°F12.6°C 44.6°F7.0°C 69% 5.8 mph N9.3 kmh N 10.4 mph16.7 kmh 29.88 in1011.9 mb - 0.00 in0.0 mm 0.32 in8.1 mm
01:45 PM 54.7°F12.6°C 44.7°F7.1°C 69% 4.6 mph SE7.4 kmh SE 8.1 mph13.0 kmh 29.88 in1011.9 mb - 0.00 in0.0 mm 0.32 in8.1 mm
01:50 PM 54.7°F12.6°C 44.3°F6.8°C 68% 9.2 mph NNE14.8 kmh NNE 15.0 mph24.1 kmh 29.88 in1011.9 mb - 0.00 in0.0 mm 0.32 in8.1 mm
01:55 PM 54.7°F12.6°C 44.3°F6.8°C 68% 4.6 mph NE7.4 kmh NE 6.9 mph11.1 kmh 29.88 in1011.9 mb - 0.00 in0.0 mm 0.32 in8.1 mm
02:00 PM 54.8°F12.7°C 44.4°F6.9°C 68% 5.8 mph N9.3 kmh N 8.1 mph13.0 kmh 29.88 in1011.9 mb - 0.00 in0.0 mm 0.32 in8.1 mm
02:05 PM 54.8°F12.7°C 44.4°F6.9°C 68% 5.8 mph NE9.3 kmh NE 11.5 mph18.5 kmh 29.88 in1011.9 mb - 0.00 in0.0 mm 0.32 in8.1 mm
02:10 PM 54.7°F12.6°C 44.0°F6.7°C 67% 5.8 mph N9.3 kmh N 11.5 mph18.5 kmh 29.88 in1011.9 mb - 0.00 in0.0 mm 0.32 in8.1 mm
02:15 PM 54.7°F12.6°C 43.6°F6.4°C 66% 3.5 mph NE5.6 kmh NE 8.1 mph13.0 kmh 29.88 in1011.9 mb - 0.00 in0.0 mm 0.32 in8.1 mm
02:20 PM 54.8°F12.7°C 43.7°F6.5°C 66% 3.5 mph NE5.6 kmh NE 8.1 mph13.0 kmh 29.88 in1011.9 mb - 0.00 in0.0 mm 0.32 in8.1 mm
02:25 PM 54.9°F12.7°C 43.7°F6.5°C 66% 4.6 mph NE7.4 kmh NE 6.9 mph11.1 kmh 29.88 in1011.9 mb - 0.00 in0.0 mm 0.32 in8.1 mm
02:30 PM 54.9°F12.7°C 43.7°F6.5°C 66% 4.6 mph ENE7.4 kmh ENE 8.1 mph13.0 kmh 29.88 in1011.9 mb - 0.00 in0.0 mm 0.32 in8.1 mm
02:35 PM 54.9°F12.7°C 44.1°F6.7°C 67% 8.1 mph NNE13.0 kmh NNE 11.5 mph18.5 kmh 29.88 in1011.9 mb - 0.00 in0.0 mm 0.32 in8.1 mm
02:40 PM 54.7°F12.6°C 44.0°F6.7°C 67% 10.4 mph NE16.7 kmh NE 16.1 mph25.9 kmh 29.88 in1011.9 mb - 0.00 in0.0 mm 0.32 in8.1 mm
02:45 PM 54.7°F12.6°C 44.3°F6.8°C 68% 5.8 mph NE9.3 kmh NE 15.0 mph24.1 kmh 29.88 in1011.9 mb - 0.00 in0.0 mm 0.32 in8.1 mm
02:50 PM 54.6°F12.6°C 44.6°F7.0°C 69% 3.5 mph ENE5.6 kmh ENE 5.8 mph9.3 kmh 29.88 in1011.9 mb - 0.00 in0.0 mm 0.32 in8.1 mm
02:55 PM 54.6°F12.6°C 44.6°F7.0°C 69% 5.8 mph W9.3 kmh W 8.1 mph13.0 kmh 29.88 in1011.9 mb - 0.00 in0.0 mm 0.32 in8.1 mm
03:00 PM 54.6°F12.6°C 45.0°F7.2°C 70% 6.9 mph N11.1 kmh N 11.5 mph18.5 kmh 29.88 in1011.9 mb - 0.00 in0.0 mm 0.32 in8.1 mm
03:05 PM 54.6°F12.6°C 45.0°F7.2°C 70% 2.3 mph NNE3.7 kmh NNE 5.8 mph9.3 kmh 29.89 in1012.2 mb - 0.00 in0.0 mm 0.32 in8.1 mm
03:10 PM 54.5°F12.5°C 44.9°F7.2°C 70% 8.1 mph NNE13.0 kmh NNE 10.4 mph16.7 kmh 29.89 in1012.2 mb - 0.00 in0.0 mm 0.32 in8.1 mm
03:15 PM 54.4°F12.4°C 44.9°F7.2°C 70% 6.9 mph NNE11.1 kmh NNE 10.4 mph16.7 kmh 29.89 in1012.2 mb - 0.00 in0.0 mm 0.32 in8.1 mm
03:20 PM 54.4°F12.4°C 45.2°F7.3°C 71% 8.1 mph NNW13.0 kmh NNW 11.5 mph18.5 kmh 29.89 in1012.2 mb - 0.00 in0.0 mm 0.32 in8.1 mm
03:25 PM 54.3°F12.4°C 45.1°F7.3°C 71% 2.3 mph NNW3.7 kmh NNW 3.5 mph5.6 kmh 29.89 in1012.2 mb - 0.00 in0.0 mm 0.32 in8.1 mm
03:30 PM 54.3°F12.4°C 45.1°F7.3°C 71% 3.5 mph N5.6 kmh N 6.9 mph11.1 kmh 29.89 in1012.2 mb - 0.00 in0.0 mm 0.32 in8.1 mm
03:35 PM 54.3°F12.4°C 45.5°F7.5°C 72% 2.3 mph WSW3.7 kmh WSW 4.6 mph7.4 kmh 29.89 in1012.2 mb - 0.00 in0.0 mm 0.32 in8.1 mm
03:40 PM 54.2°F12.3°C 45.0°F7.2°C 71% 6.9 mph NE11.1 kmh NE 11.5 mph18.5 kmh 29.89 in1012.2 mb - 0.00 in0.0 mm 0.32 in8.1 mm
03:45 PM 54.1°F12.3°C 45.3°F7.4°C 72% 9.2 mph NE14.8 kmh NE 11.5 mph18.5 kmh 29.90 in1012.5 mb - 0.00 in0.0 mm 0.32 in8.1 mm
03:50 PM 54.1°F12.3°C 45.3°F7.4°C 72% 9.2 mph N14.8 kmh N 11.5 mph18.5 kmh 29.90 in1012.5 mb - 0.00 in0.0 mm 0.32 in8.1 mm
03:55 PM 53.9°F12.2°C 45.1°F7.3°C 72% 11.5 mph NNE18.5 kmh NNE 15.0 mph24.1 kmh 29.90 in1012.5 mb - 0.00 in0.0 mm 0.32 in8.1 mm
04:00 PM 53.8°F12.1°C 45.0°F7.2°C 72% 8.1 mph NE13.0 kmh NE 11.5 mph18.5 kmh 29.90 in1012.5 mb - 0.00 in0.0 mm 0.32 in8.1 mm
04:05 PM 53.7°F12.1°C 44.9°F7.2°C 72% 3.5 mph N5.6 kmh N 3.5 mph5.6 kmh 29.90 in1012.5 mb - 0.00 in0.0 mm 0.32 in8.1 mm
04:10 PM 53.7°F12.1°C 45.2°F7.3°C 73% 4.6 mph NNE7.4 kmh NNE 12.7 mph20.4 kmh 29.90 in1012.5 mb - 0.00 in0.0 mm 0.32 in8.1 mm
04:15 PM 53.6°F12.0°C 45.2°F7.3°C 73% 4.6 mph N7.4 kmh N 3.5 mph5.6 kmh 29.90 in1012.5 mb - 0.00 in0.0 mm 0.32 in8.1 mm
04:20 PM 53.5°F11.9°C 45.1°F7.3°C 73% 4.6 mph NE7.4 kmh NE 5.8 mph9.3 kmh 29.90 in1012.5 mb - 0.00 in0.0 mm 0.32 in8.1 mm
04:25 PM 53.4°F11.9°C 45.0°F7.2°C 73% 6.9 mph NNE11.1 kmh NNE 10.4 mph16.7 kmh 29.90 in1012.5 mb - 0.00 in0.0 mm 0.32 in8.1 mm
04:30 PM 53.4°F11.9°C 45.0°F7.2°C 73% 6.9 mph N11.1 kmh N 9.2 mph14.8 kmh 29.90 in1012.5 mb - 0.00 in0.0 mm 0.32 in8.1 mm
04:35 PM 53.3°F11.8°C 44.9°F7.2°C 73% 4.6 mph N7.4 kmh N 4.6 mph7.4 kmh 29.90 in1012.5 mb - 0.00 in0.0 mm 0.32 in8.1 mm
04:40 PM 53.3°F11.8°C 44.9°F7.2°C 73% 4.6 mph NNE7.4 kmh NNE 4.6 mph7.4 kmh 29.91 in1012.9 mb - 0.00 in0.0 mm 0.32 in8.1 mm
04:45 PM 53.2°F11.8°C 44.8°F7.1°C 73% 4.6 mph NE7.4 kmh NE 8.1 mph13.0 kmh 29.91 in1012.9 mb - 0.00 in0.0 mm 0.32 in8.1 mm
04:50 PM 53.2°F11.8°C 44.8°F7.1°C 73% 3.5 mph NE5.6 kmh NE 3.5 mph5.6 kmh 29.91 in1012.9 mb - 0.00 in0.0 mm 0.32 in8.1 mm
04:55 PM 53.2°F11.8°C 44.8°F7.1°C 73% 5.8 mph NNE9.3 kmh NNE 6.9 mph11.1 kmh 29.91 in1012.9 mb - 0.00 in0.0 mm 0.32 in8.1 mm
05:00 PM 53.2°F11.8°C 44.8°F7.1°C 73% 5.8 mph NNE9.3 kmh NNE 5.8 mph9.3 kmh 29.91 in1012.9 mb - 0.00 in0.0 mm 0.32 in8.1 mm
05:05 PM 53.2°F11.8°C 44.8°F7.1°C 73% 3.5 mph N5.6 kmh N 4.6 mph7.4 kmh 29.91 in1012.9 mb - 0.00 in0.0 mm 0.32 in8.1 mm
05:10 PM 53.2°F11.8°C 44.8°F7.1°C 73% 4.6 mph NNE7.4 kmh NNE 8.1 mph13.0 kmh 29.91 in1012.9 mb - 0.00 in0.0 mm 0.32 in8.1 mm
05:15 PM 53.2°F11.8°C 44.8°F7.1°C 73% 3.5 mph NE5.6 kmh NE 9.2 mph14.8 kmh 29.91 in1012.9 mb - 0.00 in0.0 mm 0.32 in8.1 mm
05:20 PM 53.1°F11.7°C 44.7°F7.1°C 73% 2.3 mph NE3.7 kmh NE 3.5 mph5.6 kmh 29.91 in1012.9 mb - 0.00 in0.0 mm 0.32 in8.1 mm
05:25 PM 53.1°F11.7°C 44.7°F7.1°C 73% 3.5 mph NNE5.6 kmh NNE 4.6 mph7.4 kmh 29.91 in1012.9 mb - 0.00 in0.0 mm 0.32 in8.1 mm
05:30 PM 53.0°F11.7°C 44.6°F7.0°C 73% 4.6 mph NE7.4 kmh NE 9.2 mph14.8 kmh 29.92 in1013.2 mb - 0.00 in0.0 mm 0.32 in8.1 mm
05:35 PM 53.0°F11.7°C 44.6°F7.0°C 73% 4.6 mph NNE7.4 kmh NNE 11.5 mph18.5 kmh 29.92 in1013.2 mb - 0.00 in0.0 mm 0.32 in8.1 mm
05:40 PM 53.0°F11.7°C 44.6°F7.0°C 73% 5.8 mph NNE9.3 kmh NNE 9.2 mph14.8 kmh 29.92 in1013.2 mb - 0.00 in0.0 mm 0.32 in8.1 mm
05:45 PM 53.0°F11.7°C 44.6°F7.0°C 73% 5.8 mph N9.3 kmh N 9.2 mph14.8 kmh 29.92 in1013.2 mb - 0.00 in0.0 mm 0.32 in8.1 mm
05:50 PM 52.9°F11.6°C 44.5°F6.9°C 73% 3.5 mph NNW5.6 kmh NNW 10.4 mph16.7 kmh 29.92 in1013.2 mb - 0.00 in0.0 mm 0.32 in8.1 mm
05:55 PM 53.0°F11.7°C 44.6°F7.0°C 73% 3.5 mph N5.6 kmh N 6.9 mph11.1 kmh 29.93 in1013.5 mb - 0.00 in0.0 mm 0.32 in8.1 mm
06:00 PM 53.0°F11.7°C 44.2°F6.8°C 72% 3.5 mph NE5.6 kmh NE 10.4 mph16.7 kmh 29.93 in1013.5 mb - 0.00 in0.0 mm 0.32 in8.1 mm
06:05 PM 53.0°F11.7°C 44.2°F6.8°C 72% 4.6 mph N7.4 kmh N 4.6 mph7.4 kmh 29.93 in1013.5 mb - 0.00 in0.0 mm 0.32 in8.1 mm
06:10 PM 53.0°F11.7°C 44.2°F6.8°C 72% 5.8 mph NE9.3 kmh NE 9.2 mph14.8 kmh 29.93 in1013.5 mb - 0.00 in0.0 mm 0.32 in8.1 mm
06:15 PM 53.0°F11.7°C 43.8°F6.6°C 71% 6.9 mph N11.1 kmh N 11.5 mph18.5 kmh 29.93 in1013.5 mb - 0.00 in0.0 mm 0.32 in8.1 mm
06:20 PM 52.9°F11.6°C 43.8°F6.6°C 71% 3.5 mph NE5.6 kmh NE 5.8 mph9.3 kmh 29.93 in1013.5 mb - 0.00 in0.0 mm 0.32 in8.1 mm
06:25 PM 52.9°F11.6°C 43.7°F6.5°C 71% 5.8 mph NNE9.3 kmh NNE 8.1 mph13.0 kmh 29.93 in1013.5 mb - 0.00 in0.0 mm 0.32 in8.1 mm
06:30 PM 52.9°F11.6°C 43.7°F6.5°C 71% 3.5 mph E5.6 kmh E 3.5 mph5.6 kmh 29.93 in1013.5 mb - 0.00 in0.0 mm 0.32 in8.1 mm
06:35 PM 52.8°F11.6°C 43.7°F6.5°C 71% 4.6 mph N7.4 kmh N 4.6 mph7.4 kmh 29.93 in1013.5 mb - 0.00 in0.0 mm 0.32 in8.1 mm
06:40 PM 52.8°F11.6°C 43.7°F6.5°C 71% 5.8 mph N9.3 kmh N 10.4 mph16.7 kmh 29.93 in1013.5 mb - 0.00 in0.0 mm 0.32 in8.1 mm
06:45 PM 52.8°F11.6°C 43.7°F6.5°C 71% 6.9 mph N11.1 kmh N 9.2 mph14.8 kmh 29.93 in1013.5 mb - 0.00 in0.0 mm 0.32 in8.1 mm
06:50 PM 52.8°F11.6°C 43.6°F6.4°C 71% 6.9 mph NNE11.1 kmh NNE 9.2 mph14.8 kmh 29.93 in1013.5 mb - 0.00 in0.0 mm 0.32 in8.1 mm
06:55 PM 52.8°F11.6°C 43.7°F6.5°C 71% 5.8 mph NNE9.3 kmh NNE 10.4 mph16.7 kmh 29.94 in1013.9 mb - 0.00 in0.0 mm 0.32 in8.1 mm
07:00 PM 52.8°F11.6°C 43.7°F6.5°C 71% 3.5 mph N5.6 kmh N 3.5 mph5.6 kmh 29.94 in1013.9 mb - 0.00 in0.0 mm 0.32 in8.1 mm
07:05 PM 52.7°F11.5°C 43.6°F6.4°C 71% 3.5 mph N5.6 kmh N 8.1 mph13.0 kmh 29.94 in1013.9 mb - 0.00 in0.0 mm 0.32 in8.1 mm
07:10 PM 52.7°F11.5°C 43.2°F6.2°C 70% 4.6 mph N7.4 kmh N 10.4 mph16.7 kmh 29.94 in1013.9 mb - 0.00 in0.0 mm 0.32 in8.1 mm
07:15 PM 52.8°F11.6°C 43.3°F6.3°C 70% 5.8 mph NNE9.3 kmh NNE 9.2 mph14.8 kmh 29.94 in1013.9 mb - 0.00 in0.0 mm 0.32 in8.1 mm
07:20 PM 52.8°F11.6°C 43.3°F6.3°C 70% 5.8 mph NNE9.3 kmh NNE 8.1 mph13.0 kmh 29.94 in1013.9 mb - 0.00 in0.0 mm 0.32 in8.1 mm
07:25 PM 52.8°F11.6°C 42.9°F6.1°C 69% 8.1 mph NE13.0 kmh NE 10.4 mph16.7 kmh 29.94 in1013.9 mb - 0.00 in0.0 mm 0.32 in8.1 mm
07:30 PM 52.8°F11.6°C 42.9°F6.1°C 69% 6.9 mph NE11.1 kmh NE 9.2 mph14.8 kmh 29.95 in1014.2 mb - 0.00 in0.0 mm 0.32 in8.1 mm
07:35 PM 52.9°F11.6°C 43.0°F6.1°C 69% 6.9 mph N11.1 kmh N 9.2 mph14.8 kmh 29.95 in1014.2 mb - 0.00 in0.0 mm 0.32 in8.1 mm
07:40 PM 52.9°F11.6°C 43.0°F6.1°C 69% 8.1 mph N13.0 kmh N 11.5 mph18.5 kmh 29.95 in1014.2 mb - 0.00 in0.0 mm 0.32 in8.1 mm
07:45 PM 52.8°F11.6°C 43.3°F6.3°C 70% 6.9 mph NNE11.1 kmh NNE 12.7 mph20.4 kmh 29.95 in1014.2 mb - 0.00 in0.0 mm 0.32 in8.1 mm
07:50 PM 52.8°F11.6°C 43.3°F6.3°C 70% 6.9 mph NNW11.1 kmh NNW 11.5 mph18.5 kmh 29.95 in1014.2 mb - 0.00 in0.0 mm 0.32 in8.1 mm
07:55 PM 52.8°F11.6°C 43.7°F6.5°C 71% 6.9 mph NNE11.1 kmh NNE 15.0 mph24.1 kmh 29.95 in1014.2 mb - 0.00 in0.0 mm 0.32 in8.1 mm
08:00 PM 52.8°F11.6°C 43.7°F6.5°C 71% 9.2 mph NNE14.8 kmh NNE 12.7 mph20.4 kmh 29.95 in1014.2 mb - 0.00 in0.0 mm 0.32 in8.1 mm
08:05 PM 52.7°F11.5°C 43.6°F6.4°C 71% 6.9 mph NNE11.1 kmh NNE 10.4 mph16.7 kmh 29.95 in1014.2 mb - 0.00 in0.0 mm 0.32 in8.1 mm
08:10 PM 52.8°F11.6°C 43.7°F6.5°C 71% 10.4 mph N16.7 kmh N 13.8 mph22.2 kmh 29.95 in1014.2 mb - 0.00 in0.0 mm 0.32 in8.1 mm
08:15 PM 52.8°F11.6°C 43.7°F6.5°C 71% 4.6 mph NNE7.4 kmh NNE 6.9 mph11.1 kmh 29.95 in1014.2 mb - 0.00 in0.0 mm 0.32 in8.1 mm
08:20 PM 52.9°F11.6°C 43.7°F6.5°C 71% 9.2 mph N14.8 kmh N 13.8 mph22.2 kmh 29.95 in1014.2 mb - 0.00 in0.0 mm 0.32 in8.1 mm
08:25 PM 52.9°F11.6°C 43.7°F6.5°C 71% 5.8 mph N9.3 kmh N 9.2 mph14.8 kmh 29.96 in1014.6 mb - 0.00 in0.0 mm 0.32 in8.1 mm
08:30 PM 52.8°F11.6°C 43.7°F6.5°C 71% 5.8 mph N9.3 kmh N 11.5 mph18.5 kmh 29.96 in1014.6 mb - 0.00 in0.0 mm 0.32 in8.1 mm
08:35 PM 52.8°F11.6°C 43.7°F6.5°C 71% 3.5 mph N5.6 kmh N 4.6 mph7.4 kmh 29.96 in1014.6 mb - 0.00 in0.0 mm 0.32 in8.1 mm
08:40 PM 52.7°F11.5°C 43.6°F6.4°C 71% 4.6 mph N7.4 kmh N 9.2 mph14.8 kmh 29.96 in1014.6 mb - 0.00 in0.0 mm 0.32 in8.1 mm
08:45 PM 52.5°F11.4°C 43.7°F6.5°C 72% 5.8 mph NNW9.3 kmh NNW 6.9 mph11.1 kmh 29.96 in1014.6 mb - 0.00 in0.0 mm 0.32 in8.1 mm
08:50 PM 52.3°F11.3°C 43.9°F6.6°C 73% 6.9 mph NNE11.1 kmh NNE 11.5 mph18.5 kmh 29.96 in1014.6 mb - 0.00 in0.0 mm 0.32 in8.1 mm
08:55 PM 52.1°F11.2°C 43.8°F6.6°C 73% 5.8 mph N9.3 kmh N 9.2 mph14.8 kmh 29.96 in1014.6 mb - 0.00 in0.0 mm 0.32 in8.1 mm
09:00 PM 52.1°F11.2°C 44.0°F6.7°C 74% 5.8 mph NNE9.3 kmh NNE 6.9 mph11.1 kmh 29.96 in1014.6 mb - 0.00 in0.0 mm 0.32 in8.1 mm
09:05 PM 52.0°F11.1°C 44.0°F6.7°C 74% 3.5 mph NNE5.6 kmh NNE 6.9 mph11.1 kmh 29.96 in1014.6 mb - 0.00 in0.0 mm 0.32 in8.1 mm
09:10 PM 52.0°F11.1°C 44.0°F6.7°C 74% 3.5 mph N5.6 kmh N 5.8 mph9.3 kmh 29.96 in1014.6 mb - 0.00 in0.0 mm 0.32 in8.1 mm
09:15 PM 51.8°F11.0°C 44.2°F6.8°C 75% 3.5 mph NW5.6 kmh NW 4.6 mph7.4 kmh 29.96 in1014.6 mb - 0.00 in0.0 mm 0.32 in8.1 mm
09:20 PM 51.8°F11.0°C 44.1°F6.7°C 75% 3.5 mph N5.6 kmh N 3.5 mph5.6 kmh 29.96 in1014.6 mb - 0.00 in0.0 mm 0.32 in8.1 mm
09:25 PM 51.7°F10.9°C 44.4°F6.9°C 76% 2.3 mph N3.7 kmh N 12.7 mph20.4 kmh 29.96 in1014.6 mb - 0.00 in0.0 mm 0.32 in8.1 mm
09:30 PM 51.7°F10.9°C 44.4°F6.9°C 76% 3.5 mph N5.6 kmh N 5.8 mph9.3 kmh 29.96 in1014.6 mb - 0.00 in0.0 mm 0.32 in8.1 mm
09:35 PM 51.7°F10.9°C 44.4°F6.9°C 76% 2.3 mph N3.7 kmh N 5.8 mph9.3 kmh 29.97 in1014.9 mb - 0.00 in0.0 mm 0.32 in8.1 mm
09:40 PM 51.8°F11.0°C 44.5°F6.9°C 76% 4.6 mph N7.4 kmh N 9.2 mph14.8 kmh 29.97 in1014.9 mb - 0.00 in0.0 mm 0.32 in8.1 mm
09:45 PM 51.8°F11.0°C 44.5°F6.9°C 76% 3.5 mph NNE5.6 kmh NNE 5.8 mph9.3 kmh 29.97 in1014.9 mb - 0.00 in0.0 mm 0.32 in8.1 mm
09:50 PM 51.8°F11.0°C 44.5°F6.9°C 76% 8.1 mph NNE13.0 kmh NNE 11.5 mph18.5 kmh 29.97 in1014.9 mb - 0.00 in0.0 mm 0.32 in8.1 mm
09:55 PM 51.9°F11.1°C 44.2°F6.8°C 75% 4.6 mph NNE7.4 kmh NNE 5.8 mph9.3 kmh 29.97 in1014.9 mb - 0.00 in0.0 mm 0.32 in8.1 mm
10:00 PM 51.9°F11.1°C 44.2°F6.8°C 75% 4.6 mph NW7.4 kmh NW 8.1 mph13.0 kmh 29.97 in1014.9 mb - 0.00 in0.0 mm 0.32 in8.1 mm
10:05 PM 51.8°F11.0°C 44.5°F6.9°C 76% 3.5 mph NNW5.6 kmh NNW 5.8 mph9.3 kmh 29.97 in1014.9 mb - 0.00 in0.0 mm 0.32 in8.1 mm
10:10 PM 51.7°F10.9°C 44.4°F6.9°C 76% 3.5 mph NNE5.6 kmh NNE 5.8 mph9.3 kmh 29.97 in1014.9 mb - 0.00 in0.0 mm 0.32 in8.1 mm
10:15 PM 51.7°F10.9°C 44.4°F6.9°C 76% 3.5 mph NW5.6 kmh NW 5.8 mph9.3 kmh 29.97 in1014.9 mb - 0.00 in0.0 mm 0.32 in8.1 mm
10:20 PM 51.6°F10.9°C 44.3°F6.8°C 76% 3.5 mph NNE5.6 kmh NNE 5.8 mph9.3 kmh 29.97 in1014.9 mb - 0.00 in0.0 mm 0.32 in8.1 mm
10:25 PM 51.6°F10.9°C 44.3°F6.8°C 76% 4.6 mph N7.4 kmh N 10.4 mph16.7 kmh 29.98 in1015.2 mb - 0.00 in0.0 mm 0.32 in8.1 mm
10:30 PM 51.6°F10.9°C 44.3°F6.8°C 76% 3.5 mph NNW5.6 kmh NNW 9.2 mph14.8 kmh 29.98 in1015.2 mb - 0.00 in0.0 mm 0.32 in8.1 mm
10:35 PM 51.6°F10.9°C 44.3°F6.8°C 76% 2.3 mph NW3.7 kmh NW 4.6 mph7.4 kmh 29.98 in1015.2 mb - 0.00 in0.0 mm 0.32 in8.1 mm
10:40 PM 51.6°F10.9°C 44.3°F6.8°C 76% 2.3 mph NNW3.7 kmh NNW 3.5 mph5.6 kmh 29.98 in1015.2 mb - 0.00 in0.0 mm 0.32 in8.1 mm
10:45 PM 51.6°F10.9°C 44.3°F6.8°C 76% 1.2 mph N1.9 kmh N 3.5 mph5.6 kmh 29.98 in1015.2 mb - 0.00 in0.0 mm 0.32 in8.1 mm
10:50 PM 51.6°F10.9°C 44.3°F6.8°C 76% 3.5 mph N5.6 kmh N 8.1 mph13.0 kmh 29.98 in1015.2 mb - 0.00 in0.0 mm 0.32 in8.1 mm
10:55 PM 51.6°F10.9°C 44.3°F6.8°C 76% 3.5 mph NNE5.6 kmh NNE 3.5 mph5.6 kmh 29.98 in1015.2 mb - 0.00 in0.0 mm 0.32 in8.1 mm
11:00 PM 51.5°F10.8°C 44.2°F6.8°C 76% 2.3 mph N3.7 kmh N 3.5 mph5.6 kmh 29.98 in1015.2 mb - 0.00 in0.0 mm 0.32 in8.1 mm
11:05 PM 51.5°F10.8°C 44.5°F6.9°C 77% 3.5 mph N5.6 kmh N 4.6 mph7.4 kmh 29.98 in1015.2 mb - 0.00 in0.0 mm 0.32 in8.1 mm
11:10 PM 51.5°F10.8°C 44.5°F6.9°C 77% 4.6 mph N7.4 kmh N 5.8 mph9.3 kmh 29.98 in1015.2 mb - 0.00 in0.0 mm 0.32 in8.1 mm
11:15 PM 51.5°F10.8°C 44.1°F6.7°C 76% 4.6 mph N7.4 kmh N 4.6 mph7.4 kmh 29.98 in1015.2 mb - 0.00 in0.0 mm 0.32 in8.1 mm
11:20 PM 51.5°F10.8°C 44.2°F6.8°C 76% 2.3 mph NNE3.7 kmh NNE 4.6 mph7.4 kmh 29.97 in1014.9 mb - 0.00 in0.0 mm 0.32 in8.1 mm
11:25 PM 51.4°F10.8°C 44.1°F6.7°C 76% 3.5 mph N5.6 kmh N 4.6 mph7.4 kmh 29.97 in1014.9 mb - 0.00 in0.0 mm 0.32 in8.1 mm
11:30 PM 51.4°F10.8°C 44.1°F6.7°C 76% 1.2 mph N1.9 kmh N 4.6 mph7.4 kmh 29.97 in1014.9 mb - 0.00 in0.0 mm 0.32 in8.1 mm
11:35 PM 51.4°F10.8°C 44.1°F6.7°C 76% 2.3 mph N3.7 kmh N 3.5 mph5.6 kmh 29.97 in1014.9 mb - 0.00 in0.0 mm 0.32 in8.1 mm
11:40 PM 51.4°F10.8°C 44.1°F6.7°C 76% Calm Calm 3.5 mph5.6 kmh 29.97 in1014.9 mb - 0.00 in0.0 mm 0.32 in8.1 mm
11:45 PM 51.4°F10.8°C 44.1°F6.7°C 76% Calm Calm 1.2 mph1.9 kmh 29.97 in1014.9 mb - 0.00 in0.0 mm 0.32 in8.1 mm
11:50 PM 51.3°F10.7°C 44.0°F6.7°C 76% Calm Calm 1.2 mph1.9 kmh 29.96 in1014.6 mb - 0.00 in0.0 mm 0.32 in8.1 mm
11:55 PM 51.3°F10.7°C 44.0°F6.7°C 76% 2.3 mph N3.7 kmh N 3.5 mph5.6 kmh 29.96 in1014.6 mb - 0.00 in0.0 mm 0.32 in8.1 mm